Time;durP1;ratioP1;P1;durP2;ratioP2;P2;SDS_P1;SDS_P2;PMS_P1;PMS_P2;Temp;Humidity;BMP_temperature;BMP_pressure;BME280_temperature;BME280_humidity;BME280_pressure;Samples;Min_cycle;Max_cycle;Signal;HPM_P1;HPM_P2
2021/12/05 00:22:00;;;;;;;11.97;1.77;;;19.10;99.90;;;;;;5070920;28;20266;-68
2021/12/05 00:24:33;;;;;;;13.43;2.50;;;19.10;99.90;;;;;;5071291;28;20179;-69
2021/12/05 00:27:14;;;;;;;13.43;1.73;;;19.30;99.90;;;;;;5071128;28;20219;-67
2021/12/05 00:29:57;;;;;;;6.73;2.00;;;19.20;99.90;;;;;;5071221;28;20180;-67
2021/12/05 00:35:37;;;;;;;13.43;2.17;;;19.30;99.90;;;;;;5070857;28;20203;-67
2021/12/05 00:38:55;;;;;;;10.50;1.50;;;19.50;99.90;;;;;;5070003;28;20196;-66
2021/12/05 00:47:17;;;;;;;9.20;2.20;;;20.00;99.90;;;;;;5068447;28;20219;-68
2021/12/05 00:57:38;;;;;;;8.93;1.70;;;19.40;99.90;;;;;;5054894;28;20272;-68
2021/12/05 01:15:46;;;;;;;6.43;1.57;;;19.00;99.90;;;;;;5074089;28;20176;-69
2021/12/05 01:18:16;;;;;;;10.00;1.60;;;19.20;99.90;;;;;;5074241;28;20168;-69
2021/12/05 01:20:52;;;;;;;11.10;1.90;;;19.30;99.90;;;;;;5073106;28;20534;-68
2021/12/05 01:26:34;;;;;;;4.63;1.40;;;19.30;99.90;;;;;;5073930;28;20199;-68
2021/12/05 01:34:56;;;;;;;13.30;2.30;;;19.80;99.90;;;;;;5073915;28;20198;-68
2021/12/05 01:37:29;;;;;;;4.83;1.73;;;19.90;99.90;;;;;;5054050;28;20196;-68
2021/12/05 01:43:29;;;;;;;7.87;1.67;;;20.40;99.90;;;;;;5054252;28;20231;-68
2021/12/05 01:46:24;;;;;;;4.53;1.53;;;20.40;99.90;;;;;;5059692;28;20214;-69
2021/12/05 01:50:01;;;;;;;7.27;2.10;;;20.50;99.90;;;;;;5074442;28;20225;-69
2021/12/05 01:51:58;;;;;;;7.10;1.57;;;20.20;99.90;;;;;;5069377;28;20212;-68
2021/12/05 01:57:29;;;;;;;6.40;1.67;;;20.10;99.90;;;;;;5073937;28;20184;-69
2021/12/05 02:29:22;;;;;;;12.60;2.10;;;19.50;99.90;;;;;;5073318;28;20219;-67
2021/12/05 02:31:08;;;;;;;11.63;2.00;;;20.20;99.90;;;;;;5054080;28;20263;-67
2021/12/05 02:41:42;;;;;;;13.50;2.23;;;20.40;99.90;;;;;;5061317;28;20610;-67
2021/12/05 02:44:32;;;;;;;10.57;2.60;;;20.40;99.90;;;;;;5072924;28;20175;-68
2021/12/05 02:47:08;;;;;;;8.17;2.00;;;20.30;99.90;;;;;;5072450;28;20320;-67
2021/12/05 02:49:41;;;;;;;11.67;2.10;;;20.10;99.90;;;;;;5072533;28;20644;-68
2021/12/05 02:52:12;;;;;;;8.90;2.13;;;19.90;99.90;;;;;;5071204;28;20206;-68
2021/12/05 02:54:48;;;;;;;10.50;1.93;;;19.70;99.90;;;;;;5071481;28;20187;-68
2021/12/05 02:57:23;;;;;;;11.07;2.37;;;19.50;99.90;;;;;;5071561;28;20197;-68
2021/12/05 02:59:56;;;;;;;9.87;2.10;;;19.50;99.90;;;;;;5072160;28;20183;-68
2021/12/05 03:02:37;;;;;;;7.23;2.27;;;19.30;99.90;;;;;;5072476;28;20173;-68
2021/12/05 03:05:10;;;;;;;8.87;1.90;;;19.30;99.90;;;;;;5072361;28;20223;-68
2021/12/05 03:07:41;;;;;;;11.20;1.80;;;19.30;99.90;;;;;;5071409;28;20215;-68
2021/12/05 03:10:11;;;;;;;5.67;1.60;;;19.30;99.90;;;;;;5072073;28;20192;-69
2021/12/05 03:12:39;;;;;;;6.97;1.93;;;19.40;99.90;;;;;;5071938;28;20188;-68
2021/12/05 03:15:13;;;;;;;9.50;1.80;;;19.50;99.90;;;;;;5072183;28;20186;-69
2021/12/05 03:17:42;;;;;;;5.57;1.50;;;19.50;99.90;;;;;;5072032;28;20215;-67
2021/12/05 03:20:13;;;;;;;4.23;1.43;;;19.60;99.90;;;;;;5071851;28;20245;-68
2021/12/05 03:22:41;;;;;;;10.27;2.47;;;19.50;99.90;;;;;;5071944;28;20175;-67
2021/12/05 03:25:10;;;;;;;13.27;1.87;;;19.30;99.90;;;;;;5072032;28;20637;-68
2021/12/05 03:27:41;;;;;;;8.67;1.60;;;19.00;99.90;;;;;;5071971;28;20223;-68
2021/12/05 03:30:12;;;;;;;11.33;1.73;;;18.90;99.90;;;;;;5071799;28;20184;-67
2021/12/05 03:32:41;;;;;;;10.20;2.23;;;18.80;99.90;;;;;;5071998;28;20180;-68
2021/12/05 03:35:10;;;;;;;8.33;2.50;;;18.80;99.90;;;;;;5072001;28;20184;-68
2021/12/05 03:37:37;;;;;;;6.63;1.60;;;18.70;99.90;;;;;;5071978;28;20195;-68
2021/12/05 03:40:08;;;;;;;14.93;2.33;;;18.80;99.90;;;;;;5071637;28;20187;-68
2021/12/05 03:42:36;;;;;;;8.80;1.90;;;18.90;99.90;;;;;;5072150;28;20645;-67
2021/12/05 03:45:07;;;;;;;7.43;1.80;;;19.00;99.90;;;;;;5071861;28;20203;-68
2021/12/05 03:47:36;;;;;;;9.17;1.70;;;19.10;99.90;;;;;;5071888;28;20401;-69
2021/12/05 03:50:11;;;;;;;5.63;1.37;;;19.20;99.90;;;;;;5070519;28;20727;-69
2021/12/05 03:52:40;;;;;;;6.50;1.60;;;19.10;99.90;;;;;;5072022;28;20187;-69
2021/12/05 03:55:10;;;;;;;7.60;1.90;;;19.20;99.90;;;;;;5070956;28;20198;-69
2021/12/05 03:57:38;;;;;;;11.40;3.77;;;19.20;99.90;;;;;;5071952;28;20558;-70
2021/12/05 04:00:13;;;;;;;16.00;5.70;;;19.20;99.90;;;;;;5071593;28;20199;-70
2021/12/05 04:02:42;;;;;;;9.23;1.87;;;19.30;99.90;;;;;;5070608;28;20265;-68
2021/12/05 04:05:10;;;;;;;8.57;1.70;;;19.40;99.90;;;;;;5070626;28;20288;-69
2021/12/05 04:07:38;;;;;;;6.33;2.17;;;19.30;99.90;;;;;;5071776;28;20765;-68
2021/12/05 04:10:06;;;;;;;6.20;1.93;;;19.40;99.90;;;;;;5071337;28;20176;-67
2021/12/05 04:12:35;;;;;;;8.80;1.67;;;19.40;99.90;;;;;;5071449;28;20192;-68
2021/12/05 04:15:03;;;;;;;9.07;1.60;;;19.30;99.90;;;;;;5071658;28;20556;-68
2021/12/05 04:17:31;;;;;;;11.40;2.17;;;19.20;99.90;;;;;;5071442;28;20214;-68
2021/12/05 04:19:59;;;;;;;18.83;2.07;;;19.20;99.90;;;;;;5071423;28;20183;-68
2021/12/05 04:22:27;;;;;;;8.50;1.70;;;19.20;99.90;;;;;;5071669;28;20172;-68
2021/12/05 04:24:55;;;;;;;7.53;1.63;;;19.10;99.90;;;;;;5071819;28;20168;-68
2021/12/05 04:27:23;;;;;;;7.53;1.97;;;19.10;99.90;;;;;;5071471;28;20216;-68
2021/12/05 04:29:50;;;;;;;11.70;1.80;;;19.10;99.90;;;;;;5071404;28;20824;-68
2021/12/05 04:32:18;;;;;;;9.90;1.73;;;19.00;99.90;;;;;;5071344;28;20176;-68
2021/12/05 04:34:46;;;;;;;7.77;1.53;;;18.90;99.90;;;;;;5071312;28;20183;-68
2021/12/05 04:37:14;;;;;;;10.10;1.73;;;18.90;99.90;;;;;;5071511;28;20179;-68
2021/12/05 04:39:41;;;;;;;9.47;1.60;;;18.90;99.90;;;;;;5071030;28;20290;-69
2021/12/05 04:42:09;;;;;;;8.00;1.57;;;18.90;99.90;;;;;;5071176;28;20178;-69
2021/12/05 04:44:38;;;;;;;9.83;2.37;;;18.80;99.90;;;;;;5071152;28;20275;-68
2021/12/05 04:47:06;;;;;;;16.60;8.10;;;18.80;99.90;;;;;;5060356;28;20219;-69
2021/12/05 04:49:34;;;;;;;9.30;1.80;;;18.80;99.90;;;;;;5071346;28;20253;-68
2021/12/05 04:52:03;;;;;;;5.00;1.47;;;18.90;99.90;;;;;;5071384;28;20176;-68
2021/12/05 04:54:31;;;;;;;7.93;1.90;;;18.90;99.90;;;;;;5070901;28;20180;-68
2021/12/05 04:56:59;;;;;;;11.20;1.90;;;18.90;99.90;;;;;;5071094;28;20574;-67
2021/12/05 04:59:28;;;;;;;16.27;2.20;;;18.90;99.90;;;;;;5071170;28;20168;-68
2021/12/05 05:01:57;;;;;;;10.30;2.50;;;18.80;99.90;;;;;;5071010;28;20188;-68
2021/12/05 05:04:28;;;;;;;13.43;2.27;;;18.80;99.90;;;;;;5069415;28;20599;-68
2021/12/05 05:07:04;;;;;;;5.50;1.70;;;18.90;99.90;;;;;;5051018;28;20713;-67
2021/12/05 05:09:32;;;;;;;10.03;1.83;;;19.00;99.90;;;;;;5051098;28;20172;-68
2021/12/05 05:12:00;;;;;;;8.80;1.43;;;18.90;99.90;;;;;;5061029;28;20191;-67
2021/12/05 05:14:27;;;;;;;11.00;1.73;;;19.00;99.90;;;;;;5070855;28;20218;-66
2021/12/05 05:16:55;;;;;;;6.60;1.80;;;19.10;99.90;;;;;;5070898;28;20188;-68
2021/12/05 05:19:32;;;;;;;6.50;1.60;;;19.10;99.90;;;;;;5070065;28;20176;-67
2021/12/05 05:22:49;;;;;;;10.50;2.00;;;19.10;99.90;;;;;;5070747;28;20192;-68
2021/12/05 05:50:46;;;;;;;7.97;1.60;;;18.80;99.90;;;;;;5073719;28;20546;-69
2021/12/05 05:53:13;;;;;;;11.30;2.30;;;18.90;99.90;;;;;;5073518;28;20180;-68
2021/12/05 05:55:41;;;;;;;5.17;1.80;;;18.80;99.90;;;;;;5074084;28;20725;-67
2021/12/05 05:58:13;;;;;;;10.20;1.60;;;18.80;99.90;;;;;;5074031;28;20317;-69
2021/12/05 06:00:58;;;;;;;5.60;1.50;;;18.70;99.90;;;;;;5073937;28;20565;-68
2021/12/05 06:03:26;;;;;;;8.43;1.93;;;18.70;99.90;;;;;;5074110;28;20536;-67
2021/12/05 06:06:01;;;;;;;9.10;2.03;;;18.70;99.90;;;;;;5073685;28;20271;-70
2021/12/05 06:08:31;;;;;;;9.20;1.70;;;18.70;99.90;;;;;;5072532;28;20616;-68
2021/12/05 06:11:04;;;;;;;4.20;1.13;;;18.60;99.90;;;;;;5073820;28;20644;-67
2021/12/05 06:13:33;;;;;;;11.10;1.50;;;18.60;99.90;;;;;;5073881;28;20596;-68
2021/12/05 06:16:02;;;;;;;10.30;2.00;;;18.70;99.90;;;;;;5073531;28;20247;-68
2021/12/05 06:18:30;;;;;;;9.40;1.67;;;18.80;99.90;;;;;;5073965;28;20206;-69
2021/12/05 06:20:59;;;;;;;8.83;1.57;;;18.70;99.90;;;;;;5073235;28;20195;-69
2021/12/05 06:23:27;;;;;;;9.10;1.60;;;18.70;99.90;;;;;;5073838;28;20267;-67
2021/12/05 06:25:56;;;;;;;5.20;1.70;;;18.70;99.90;;;;;;5070927;28;20192;-69
2021/12/05 06:28:32;;;;;;;10.90;1.80;;;18.60;99.90;;;;;;5073247;28;20180;-68
2021/12/05 06:42:44;;;;;;;3.60;1.20;;;18.70;99.90;;;;;;5070967;28;20628;-68
2021/12/05 06:47:54;;;;;;;10.87;2.93;;;18.90;99.90;;;;;;5073495;28;20234;-69
2021/12/05 06:50:22;;;;;;;7.80;1.97;;;18.90;99.90;;;;;;5073283;28;20257;-69
2021/12/05 06:52:49;;;;;;;5.57;1.60;;;18.90;99.90;;;;;;5073561;28;20225;-68
2021/12/05 06:55:18;;;;;;;4.93;1.63;;;18.90;99.90;;;;;;5073535;28;20172;-67
2021/12/05 06:57:47;;;;;;;5.03;1.27;;;18.80;99.90;;;;;;5071557;28;20187;-68
2021/12/05 07:00:23;;;;;;;8.33;1.80;;;18.70;99.90;;;;;;5072877;28;20184;-68
2021/12/05 07:02:51;;;;;;;6.77;1.90;;;18.70;99.90;;;;;;5072881;28;20183;-69
2021/12/05 07:05:38;;;;;;;7.57;1.60;;;18.70;99.90;;;;;;5072594;28;20246;-69
2021/12/05 07:08:08;;;;;;;10.90;1.60;;;18.80;99.90;;;;;;5072676;28;20200;-69
2021/12/05 07:11:00;;;;;;;12.57;1.47;;;18.70;99.90;;;;;;5073191;28;20188;-69
2021/12/05 07:26:42;;;;;;;10.80;1.60;;;18.60;99.90;;;;;;5072653;28;20702;-72
2021/12/05 07:40:26;;;;;;;9.97;1.97;;;18.50;99.90;;;;;;5072148;28;20266;-68
2021/12/05 07:43:00;;;;;;;8.13;1.90;;;18.50;99.90;;;;;;5072294;28;20171;-68
2021/12/05 07:45:35;;;;;;;12.10;1.80;;;18.50;99.90;;;;;;5072068;28;20190;-69
2021/12/05 07:48:14;;;;;;;8.37;1.90;;;18.50;99.90;;;;;;5071909;28;20219;-69
2021/12/05 07:50:54;;;;;;;10.50;1.57;;;18.50;99.90;;;;;;5072101;28;20247;-69
2021/12/05 07:53:31;;;;;;;12.13;1.73;;;18.40;99.90;;;;;;5071304;28;20188;-70
2021/12/05 07:56:08;;;;;;;15.00;1.70;;;18.40;99.90;;;;;;5071697;28;20179;-68
2021/12/05 08:14:47;;;;;;;14.90;2.40;;;18.30;99.90;;;;;;5071484;28;20226;-67
2021/12/05 08:17:18;;;;;;;9.80;2.30;;;18.30;99.90;;;;;;5071454;28;20228;-67
2021/12/05 08:19:47;;;;;;;9.07;1.53;;;18.30;99.90;;;;;;5070188;28;20241;-68
2021/12/05 08:22:16;;;;;;;11.60;1.67;;;18.20;99.90;;;;;;5071498;28;20176;-66
2021/12/05 08:24:47;;;;;;;5.20;1.47;;;18.20;99.90;;;;;;5071383;28;20633;-67
2021/12/05 08:27:15;;;;;;;11.00;2.00;;;18.20;99.90;;;;;;5071089;28;20671;-67
2021/12/05 08:29:52;;;;;;;12.03;4.37;;;18.20;99.90;;;;;;5071383;28;20204;-68
2021/12/05 08:32:41;;;;;;;7.43;2.57;;;18.20;99.90;;;;;;5071501;28;20171;-70
2021/12/05 08:40:43;;;;;;;6.87;2.03;;;18.20;99.90;;;;;;5052453;28;20191;-67
2021/12/05 09:29:44;;;;;;;10.03;1.77;;;17.90;99.90;;;;;;5076184;28;20172;-69
2021/12/05 09:52:01;;;;;;;10.67;1.73;;;17.80;99.90;;;;;;5076377;28;20187;-67
2021/12/05 10:02:50;;;;;;;8.10;1.60;;;17.80;99.90;;;;;;5076454;28;20177;-70
2021/12/05 10:10:48;;;;;;;10.93;2.37;;;17.80;99.90;;;;;;5075876;28;20258;-68
2021/12/05 10:13:27;;;;;;;8.90;1.60;;;17.80;99.90;;;;;;5074644;28;20229;-72
2021/12/05 10:19:21;;;;;;;12.80;2.30;;;17.70;99.90;;;;;;5075491;28;20180;-69
2021/12/05 10:35:59;;;;;;;7.70;2.00;;;17.60;99.90;;;;;;5074981;28;20187;-68
2021/12/05 10:38:38;;;;;;;11.47;2.10;;;17.60;99.90;;;;;;5075338;28;20579;-68
2021/12/05 10:41:23;;;;;;;6.60;2.10;;;17.60;99.90;;;;;;5074034;28;20187;-69
2021/12/05 10:43:54;;;;;;;13.50;1.70;;;17.50;99.90;;;;;;5075243;28;20201;-67
2021/12/05 10:46:26;;;;;;;9.57;1.87;;;17.60;99.90;;;;;;5074754;28;20287;-69
2021/12/05 10:48:55;;;;;;;9.43;1.90;;;17.60;99.90;;;;;;5075504;28;20270;-71
2021/12/05 10:51:28;;;;;;;11.77;2.47;;;17.50;99.90;;;;;;5075108;28;20234;-68
2021/12/05 10:54:05;;;;;;;11.07;2.63;;;17.50;99.90;;;;;;5073157;28;20586;-69
2021/12/05 10:56:39;;;;;;;10.57;2.40;;;17.60;99.90;;;;;;5072953;28;20189;-68
2021/12/05 10:59:16;;;;;;;11.70;2.07;;;17.60;99.90;;;;;;5074620;28;20220;-69
2021/12/05 11:01:57;;;;;;;11.17;2.60;;;17.60;99.90;;;;;;5074688;28;20190;-68
2021/12/05 11:04:44;;;;;;;11.33;2.23;;;17.60;99.90;;;;;;5074068;28;20233;-69
2021/12/05 11:07:13;;;;;;;11.33;2.50;;;17.60;99.90;;;;;;5074345;28;20211;-68
2021/12/05 11:09:44;;;;;;;11.60;1.77;;;17.60;99.90;;;;;;5074192;28;20184;-68
2021/12/05 11:12:14;;;;;;;7.93;1.70;;;17.60;99.90;;;;;;5074628;28;20592;-68
2021/12/05 11:14:51;;;;;;;6.87;1.80;;;17.50;99.90;;;;;;5072505;28;20183;-68
2021/12/05 11:17:27;;;;;;;10.27;2.10;;;17.50;99.90;;;;;;5074525;28;20176;-68
2021/12/05 11:19:59;;;;;;;8.57;2.03;;;17.40;99.90;;;;;;5074009;28;20172;-69
2021/12/05 11:22:37;;;;;;;7.50;1.73;;;17.40;99.90;;;;;;5072595;28;20190;-68
2021/12/05 11:25:15;;;;;;;9.97;2.00;;;17.30;99.90;;;;;;5072363;28;20221;-68
2021/12/05 11:27:49;;;;;;;9.57;1.77;;;17.30;99.90;;;;;;5073515;28;20248;-68
2021/12/05 11:30:21;;;;;;;6.43;1.77;;;17.20;99.90;;;;;;5073716;28;20187;-69
2021/12/05 11:33:01;;;;;;;7.97;1.97;;;17.20;99.90;;;;;;5074416;28;20180;-67
2021/12/05 11:35:42;;;;;;;9.03;1.87;;;17.20;99.90;;;;;;5073201;28;20550;-69
2021/12/05 11:38:20;;;;;;;9.80;2.33;;;17.10;99.90;;;;;;5073911;28;20168;-68
2021/12/05 11:41:06;;;;;;;9.37;2.27;;;17.10;99.90;;;;;;5073963;28;20220;-69
2021/12/05 11:43:49;;;;;;;11.30;2.67;;;17.20;99.90;;;;;;5074117;28;20176;-67
2021/12/05 11:46:22;;;;;;;9.70;2.90;;;17.20;99.90;;;;;;5073580;28;20260;-68
2021/12/05 11:49:04;;;;;;;9.87;2.30;;;17.20;99.90;;;;;;5073837;28;20521;-69
2021/12/05 11:51:37;;;;;;;6.80;2.23;;;17.20;99.90;;;;;;5073549;28;20176;-67
2021/12/05 11:54:26;;;;;;;10.90;2.50;;;17.20;99.90;;;;;;5073391;28;20709;-68
2021/12/05 11:57:05;;;;;;;9.77;1.93;;;17.20;99.90;;;;;;5053651;28;20184;-68
2021/12/05 11:59:39;;;;;;;9.33;2.20;;;17.20;99.90;;;;;;5053583;28;20226;-69
2021/12/05 12:02:27;;;;;;;10.87;2.10;;;17.10;99.90;;;;;;5053457;28;20194;-68
2021/12/05 12:05:04;;;;;;;12.23;1.93;;;17.20;99.90;;;;;;5059117;28;20357;-68
2021/12/05 12:07:46;;;;;;;7.80;1.97;;;17.10;99.90;;;;;;5072212;28;20203;-67
2021/12/05 12:10:19;;;;;;;6.73;2.07;;;17.10;99.90;;;;;;5073602;28;20172;-67
2021/12/05 12:13:15;;;;;;;6.33;1.93;;;17.00;99.90;;;;;;5073399;28;20232;-66
2021/12/05 12:15:47;;;;;;;9.83;2.23;;;17.00;99.90;;;;;;5073123;28;20183;-68
2021/12/05 12:18:25;;;;;;;12.50;2.23;;;17.00;99.90;;;;;;5072926;28;20707;-69
2021/12/05 12:20:54;;;;;;;8.73;2.10;;;16.90;99.90;;;;;;5073471;28;20249;-66
2021/12/05 12:23:24;;;;;;;7.90;1.93;;;16.70;99.90;;;;;;5072874;28;20183;-67
2021/12/05 12:25:56;;;;;;;6.97;1.83;;;16.50;99.90;;;;;;5072627;28;20180;-67
2021/12/05 12:28:24;;;;;;;11.60;2.20;;;16.40;99.90;;;;;;5073172;28;20290;-67
2021/12/05 12:31:04;;;;;;;12.13;2.43;;;16.20;99.90;;;;;;5072967;28;20172;-67
2021/12/05 12:33:49;;;;;;;6.67;2.20;;;16.10;99.90;;;;;;5072994;28;20271;-68
2021/12/05 12:36:30;;;;;;;8.33;2.03;;;16.10;99.90;;;;;;5072697;28;20180;-68
2021/12/05 12:39:03;;;;;;;8.13;2.10;;;15.90;99.90;;;;;;5072593;28;20252;-68
2021/12/05 12:41:32;;;;;;;9.93;2.43;;;15.80;99.90;;;;;;5076903;28;20270;-67
2021/12/05 12:44:05;;;;;;;12.43;2.10;;;15.70;99.90;;;;;;5076654;28;20204;-67
2021/12/05 12:46:59;;;;;;;10.60;2.93;;;15.70;99.90;;;;;;5076854;28;20204;-67
2021/12/05 12:49:47;;;;;;;9.77;2.07;;;15.60;99.90;;;;;;5075589;28;20186;-67
2021/12/05 12:52:18;;;;;;;8.93;2.20;;;15.40;99.90;;;;;;5076854;28;20175;-67
2021/12/05 12:54:58;;;;;;;8.83;2.00;;;15.40;99.90;;;;;;5076356;28;20717;-67
2021/12/05 12:57:31;;;;;;;7.43;2.00;;;15.40;99.90;;;;;;5076912;28;20532;-67
2021/12/05 13:00:03;;;;;;;12.17;2.30;;;15.40;99.90;;;;;;5075461;28;20219;-67
2021/12/05 13:11:07;;;;;;;8.27;1.70;;;15.40;99.90;;;;;;5076443;28;20178;-68
2021/12/05 13:13:38;;;;;;;7.00;1.77;;;15.40;99.90;;;;;;5076138;28;20190;-67
2021/12/05 13:16:20;;;;;;;9.47;1.87;;;15.30;99.90;;;;;;5075933;28;20640;-67
2021/12/05 13:18:57;;;;;;;12.93;2.03;;;15.30;99.90;;;;;;5075995;28;20275;-67
2021/12/05 13:21:36;;;;;;;7.53;1.90;;;15.30;99.90;;;;;;5076461;28;20306;-70
2021/12/05 13:24:41;;;;;;;6.20;1.63;;;15.30;99.90;;;;;;5076063;28;20188;-69
2021/12/05 13:27:25;;;;;;;6.87;2.00;;;15.30;99.90;;;;;;5076147;28;20207;-69
2021/12/05 13:29:56;;;;;;;15.60;2.20;;;15.30;99.90;;;;;;5075931;28;20524;-68
2021/12/05 13:32:29;;;;;;;6.13;1.53;;;15.30;99.90;;;;;;5075917;28;20584;-68
2021/12/05 13:35:07;;;;;;;7.37;1.87;;;15.30;99.90;;;;;;5075458;28;20176;-68
2021/12/05 13:37:49;;;;;;;8.33;2.10;;;15.30;99.90;;;;;;5075597;28;20587;-68
2021/12/05 13:40:26;;;;;;;7.67;1.80;;;15.20;99.90;;;;;;5075547;28;20180;-68
2021/12/05 13:43:00;;;;;;;8.37;2.33;;;15.20;99.90;;;;;;5074078;28;20188;-68
2021/12/05 13:45:27;;;;;;;8.23;1.97;;;15.10;99.90;;;;;;5075467;28;20168;-69
2021/12/05 13:48:01;;;;;;;7.63;2.23;;;15.00;99.90;;;;;;5075722;28;20208;-68
2021/12/05 13:50:43;;;;;;;11.40;2.37;;;15.00;99.90;;;;;;5075078;28;20176;-67
2021/12/05 13:53:10;;;;;;;7.57;2.00;;;14.90;99.90;;;;;;5075696;28;20183;-68
2021/12/05 13:55:53;;;;;;;5.60;1.80;;;14.80;99.90;;;;;;5074106;28;20653;-68
2021/12/05 13:58:40;;;;;;;5.67;1.90;;;14.70;99.90;;;;;;5075542;28;20179;-68
2021/12/05 14:01:18;;;;;;;6.07;1.60;;;14.60;99.90;;;;;;5075456;28;20170;-69
2021/12/05 14:03:52;;;;;;;8.37;2.07;;;14.60;99.90;;;;;;5075175;28;20513;-68
2021/12/05 14:06:41;;;;;;;9.27;2.30;;;14.50;99.90;;;;;;5075141;28;20223;-68
2021/12/05 14:09:23;;;;;;;7.70;2.07;;;14.50;99.90;;;;;;5075289;28;20520;-68
2021/12/05 14:11:53;;;;;;;7.37;1.80;;;14.50;99.90;;;;;;5075786;28;20540;-67
2021/12/05 14:14:24;;;;;;;6.77;1.60;;;14.50;99.90;;;;;;5075018;28;20176;-68
2021/12/05 14:16:55;;;;;;;10.83;1.90;;;14.50;99.90;;;;;;5075224;28;20172;-68
2021/12/05 14:19:27;;;;;;;5.07;1.67;;;14.50;99.90;;;;;;5073757;28;20179;-69
2021/12/05 14:21:58;;;;;;;6.33;1.80;;;14.40;99.90;;;;;;5075233;28;20637;-69
2021/12/05 14:24:30;;;;;;;13.03;2.60;;;14.40;99.90;;;;;;5074849;28;20208;-68
2021/12/05 14:27:08;;;;;;;10.57;1.90;;;14.50;99.90;;;;;;5074895;28;20214;-67
2021/12/05 14:29:40;;;;;;;11.17;1.90;;;14.50;99.90;;;;;;5074865;28;20263;-67
2021/12/05 14:32:12;;;;;;;12.00;2.40;;;14.60;99.90;;;;;;5074911;28;20191;-69
2021/12/05 14:34:41;;;;;;;6.70;1.73;;;14.60;99.90;;;;;;5074677;28;20186;-68
2021/12/05 14:37:13;;;;;;;12.17;2.43;;;14.70;99.90;;;;;;5074580;28;20188;-68
2021/12/05 14:39:44;;;;;;;9.47;2.37;;;14.80;99.90;;;;;;5074850;28;20184;-68
2021/12/05 14:42:16;;;;;;;12.23;2.13;;;14.80;99.90;;;;;;5074648;28;20627;-68
2021/12/05 14:44:56;;;;;;;6.97;2.10;;;14.90;99.90;;;;;;5074616;28;20184;-68
2021/12/05 14:47:27;;;;;;;11.27;2.13;;;15.00;99.90;;;;;;5074724;28;20215;-68
2021/12/05 14:50:05;;;;;;;10.90;2.27;;;15.10;99.90;;;;;;5073413;28;20577;-68
2021/12/05 14:52:36;;;;;;;11.70;2.00;;;15.10;99.90;;;;;;5074463;28;20190;-69
2021/12/05 14:55:06;;;;;;;13.53;2.10;;;15.20;99.90;;;;;;5074395;28;20184;-67
2021/12/05 14:57:39;;;;;;;11.10;2.43;;;15.30;99.90;;;;;;5074571;28;20186;-68
2021/12/05 15:00:21;;;;;;;6.70;1.90;;;15.30;99.90;;;;;;5074641;28;20169;-68
2021/12/05 15:02:48;;;;;;;7.57;2.00;;;15.40;99.90;;;;;;5074506;28;20174;-68
2021/12/05 15:05:18;;;;;;;10.93;2.20;;;15.50;99.90;;;;;;5073759;28;20251;-68
2021/12/05 15:07:47;;;;;;;13.30;2.27;;;15.50;99.90;;;;;;5074098;28;20212;-68
2021/12/05 15:10:20;;;;;;;6.73;1.60;;;15.50;99.90;;;;;;5074059;28;20176;-68
2021/12/05 15:12:52;;;;;;;7.60;1.93;;;15.60;99.90;;;;;;5074261;28;20172;-67
2021/12/05 15:15:21;;;;;;;9.97;2.33;;;15.60;99.90;;;;;;5073722;28;20231;-67
2021/12/05 15:17:49;;;;;;;11.70;1.73;;;15.60;99.90;;;;;;5073908;28;20265;-67
2021/12/05 15:20:20;;;;;;;6.37;1.83;;;15.60;99.90;;;;;;5073922;28;20548;-68
2021/12/05 15:23:01;;;;;;;10.93;2.30;;;15.60;99.90;;;;;;5073987;28;20537;-67
2021/12/05 15:25:30;;;;;;;6.83;1.37;;;15.60;99.90;;;;;;5073579;28;20187;-68
2021/12/05 15:27:58;;;;;;;11.90;2.90;;;15.70;99.90;;;;;;5073598;28;20215;-69
2021/12/05 15:30:29;;;;;;;7.87;1.70;;;15.70;99.90;;;;;;5073759;28;20187;-67
2021/12/05 15:33:06;;;;;;;11.67;2.03;;;15.70;99.90;;;;;;5073473;28;20610;-67
2021/12/05 15:35:34;;;;;;;5.67;1.67;;;15.80;99.90;;;;;;5073387;28;20186;-67
2021/12/05 15:38:15;;;;;;;6.50;1.43;;;15.80;99.90;;;;;;5072283;28;20186;-68
2021/12/05 15:40:46;;;;;;;10.03;2.43;;;15.80;99.90;;;;;;5073620;28;20175;-67
2021/12/05 15:43:16;;;;;;;7.13;2.30;;;15.90;99.90;;;;;;5073601;28;20207;-69
2021/12/05 15:45:47;;;;;;;8.03;1.60;;;15.90;99.90;;;;;;5073808;28;20637;-67
2021/12/05 15:48:36;;;;;;;6.57;2.17;;;15.80;99.90;;;;;;5073392;28;20212;-68
2021/12/05 15:51:07;;;;;;;5.37;1.53;;;15.80;99.90;;;;;;5073532;28;20191;-67
2021/12/05 15:53:36;;;;;;;10.50;2.20;;;15.80;99.90;;;;;;5073249;28;20195;-68
2021/12/05 15:56:11;;;;;;;8.10;1.70;;;15.80;99.90;;;;;;5073178;28;20229;-67
2021/12/05 15:58:47;;;;;;;8.67;1.80;;;15.90;99.90;;;;;;5073336;28;20180;-67
2021/12/05 16:01:22;;;;;;;10.03;1.73;;;15.90;99.90;;;;;;5073195;28;20656;-67
2021/12/05 16:03:53;;;;;;;8.63;2.03;;;15.90;99.90;;;;;;5071748;28;20221;-67
2021/12/05 16:06:29;;;;;;;9.40;2.07;;;15.90;99.90;;;;;;5072735;28;20311;-66
2021/12/05 16:08:57;;;;;;;9.40;2.17;;;15.90;99.90;;;;;;5073372;28;20259;-68
2021/12/05 16:11:24;;;;;;;12.03;2.43;;;15.90;99.90;;;;;;5073043;28;20168;-67
2021/12/05 16:13:54;;;;;;;13.93;2.13;;;15.90;99.90;;;;;;5071175;28;20191;-67
2021/12/05 16:16:25;;;;;;;8.33;1.73;;;15.90;99.90;;;;;;5072965;28;20180;-68
2021/12/05 16:18:58;;;;;;;7.97;1.93;;;15.90;99.90;;;;;;5071693;28;20191;-68
2021/12/05 16:21:32;;;;;;;7.77;1.63;;;16.00;99.90;;;;;;5073147;28;20660;-67
2021/12/05 16:24:13;;;;;;;9.17;1.73;;;16.00;99.90;;;;;;5072264;28;20214;-68
2021/12/05 16:26:43;;;;;;;12.17;2.60;;;16.00;99.90;;;;;;5072962;28;20218;-67
2021/12/05 16:29:14;;;;;;;14.50;2.43;;;16.00;99.90;;;;;;5072973;28;20538;-67
2021/12/05 16:31:45;;;;;;;11.30;1.77;;;16.10;99.90;;;;;;5073086;28;20225;-68
2021/12/05 16:34:25;;;;;;;6.77;1.70;;;16.10;99.90;;;;;;5072673;28;20187;-68
2021/12/05 16:36:58;;;;;;;12.17;2.27;;;16.00;99.90;;;;;;5073057;28;20175;-68
2021/12/05 16:39:52;;;;;;;11.10;1.77;;;16.00;99.90;;;;;;5073050;28;20251;-68
2021/12/05 16:42:23;;;;;;;9.97;1.60;;;16.00;99.90;;;;;;5072872;28;20202;-68
2021/12/05 16:44:59;;;;;;;9.27;2.00;;;16.00;99.90;;;;;;5072523;28;20670;-67
2021/12/05 16:47:29;;;;;;;10.20;1.70;;;16.00;99.90;;;;;;5072540;28;20222;-68
2021/12/05 16:49:59;;;;;;;8.67;2.50;;;15.80;99.90;;;;;;5072907;28;20183;-68
2021/12/05 16:52:35;;;;;;;10.73;1.73;;;15.70;99.90;;;;;;5072369;28;20209;-68
2021/12/05 16:55:25;;;;;;;11.37;1.87;;;15.60;99.90;;;;;;5072399;28;20233;-69
2021/12/05 16:58:06;;;;;;;9.63;1.90;;;15.70;99.90;;;;;;5072742;28;20593;-68
2021/12/05 17:00:39;;;;;;;10.33;1.97;;;15.60;99.90;;;;;;5072385;28;20190;-68
2021/12/05 17:03:09;;;;;;;12.40;1.83;;;15.70;99.90;;;;;;5072871;28;20187;-68
2021/12/05 17:05:44;;;;;;;6.43;1.97;;;15.70;99.90;;;;;;5072270;28;20224;-67
2021/12/05 17:08:22;;;;;;;12.23;1.93;;;15.80;99.90;;;;;;5072580;28;20219;-72
2021/12/05 17:11:11;;;;;;;8.67;2.00;;;15.80;99.90;;;;;;5072693;28;20168;-68
2021/12/05 17:13:40;;;;;;;8.33;1.90;;;15.80;99.90;;;;;;5072540;28;20186;-68
2021/12/05 17:16:17;;;;;;;9.13;1.70;;;15.80;99.90;;;;;;5072625;28;20544;-68
2021/12/05 17:19:02;;;;;;;13.57;1.90;;;15.80;99.90;;;;;;5072757;28;20217;-68
2021/12/05 17:21:38;;;;;;;10.70;1.83;;;15.80;99.90;;;;;;5072241;28;20184;-67
2021/12/05 17:24:21;;;;;;;7.40;1.47;;;15.90;99.90;;;;;;5072343;28;20671;-70
2021/12/05 17:26:55;;;;;;;6.40;1.67;;;15.90;99.90;;;;;;5074852;28;20293;-68
2021/12/05 17:29:27;;;;;;;8.47;1.70;;;15.90;99.90;;;;;;5076071;28;20176;-67
2021/12/05 17:32:06;;;;;;;8.43;1.83;;;16.00;99.90;;;;;;5076308;28;20174;-68
2021/12/05 17:34:38;;;;;;;12.97;2.23;;;15.90;99.90;;;;;;5074543;28;20652;-68
2021/12/05 17:37:13;;;;;;;13.40;1.90;;;16.00;99.90;;;;;;5075926;28;20176;-68
2021/12/05 17:39:43;;;;;;;12.47;2.13;;;16.00;99.90;;;;;;5075981;28;20174;-69
2021/12/05 17:42:13;;;;;;;9.43;1.87;;;16.00;99.90;;;;;;5076206;28;20180;-68
2021/12/05 17:44:44;;;;;;;11.30;1.53;;;15.90;99.90;;;;;;5075637;28;20663;-67
2021/12/05 17:47:13;;;;;;;7.37;1.67;;;15.90;99.90;;;;;;5074497;28;20214;-67
2021/12/05 17:49:43;;;;;;;11.63;1.77;;;16.00;99.90;;;;;;5075245;28;20180;-68
2021/12/05 17:52:14;;;;;;;7.77;2.23;;;15.90;99.90;;;;;;5075888;28;20233;-67
2021/12/05 17:55:06;;;;;;;8.57;1.60;;;16.00;99.90;;;;;;5073863;28;20187;-69
2021/12/05 17:57:40;;;;;;;8.93;1.93;;;16.00;99.90;;;;;;5075179;28;20598;-69
2021/12/05 18:00:35;;;;;;;16.23;2.13;;;16.00;99.90;;;;;;5075482;28;20267;-68
2021/12/05 18:03:13;;;;;;;13.67;2.30;;;16.00;99.90;;;;;;5075804;28;20179;-68
2021/12/05 18:05:46;;;;;;;8.70;1.83;;;16.00;99.90;;;;;;5074991;28;20219;-69
2021/12/05 18:08:18;;;;;;;9.37;1.70;;;15.90;99.90;;;;;;5075486;28;20210;-68
2021/12/05 18:10:55;;;;;;;13.20;1.87;;;15.90;99.90;;;;;;5075741;28;20172;-69
2021/12/05 18:13:24;;;;;;;11.00;2.00;;;15.80;99.90;;;;;;5075385;28;20180;-69
2021/12/05 18:16:04;;;;;;;11.00;2.27;;;15.80;99.90;;;;;;5074777;28;20180;-69